Central Nebraska Regional Airport
KGRI : rendu visible

Aérodrome :











RETROUVEZ-NOUS SUR...

 
LOGIN :

S'inscrire | Disclaimer

   EN    FR    IT 

 









Légende :    VFR   VFR Marginal   IFR   IFR Intensif   IFR Très Intensif
Visi : 
Plafond : 
>= 8 km
>= 3000ft
5 à 8 km
1000 à 3000 ft
1500m à 5 km
500 à 1000 ft
800 à 1500m
200 à 500 ft
< 800m
< 200 ft
Symboles :   Orages  Brouillard  Fortes neiges  Fortes précipitations  Vent > 20 kt






- Altitude de l'aérodrome : 1847 ft
- Code IATA : GRI


KGRI - Central Nebraska Regional

DERNIER METAR :
  • 100653Z AUTO 27007KT 10SM FEW048 BKN065 M04/M09 A3006 RMK AO2 SLP209 T10391094

METARs EXPIRÉS :
  • 100553Z AUTO 26009KT 10SM CLR M05/M10 A3005 RMK AO2 SLP207 T10501100 11050 21072 400561100 53009
  • 100453Z AUTO 25008KT 10SM CLR M06/M10 A3004 RMK AO2 SLP205 T10561100

TAF KGRI
Valide du 10 à 06h jusqu'au 11 à 06h UTC


100520Z 1006/1106 27008KT P6SM FEW070 SCT200
FM101100 34008KT P6SM SCT200
FM101800 32005KT P6SM BKN120
FM102100 23005KT P6SM SCT120



MET'MAP, la Météo Aéronautique d'un coup d'oeil ! - Copyright ORBIFLY Décembre 2007 - Disclaimer

ORBIFLY MET'MAP TEAM :

Programmation & Développement : Alexandra Zaïnal
Sur une idée originale de : Baudouin d'Aumeries
Assistance à la programmation : Marc-Olivier Méhu
Soutien technique & logistique : Manuel Goepfert

Contact : metmap@orbifly.com




SOURCES & CREDITS :

   NOAA       Earth
Advisory